Time;durP1;ratioP1;P1;durP2;ratioP2;P2;SDS_P1;SDS_P2;PMS_P1;PMS_P2;Temp;Humidity;BMP_temperature;BMP_pressure;BME280_temperature;BME280_humidity;BME280_pressure;Samples;Min_cycle;Max_cycle;Signal;HPM_P1;HPM_P2
2021/12/20 00:01:26;;;;;;;4.70;2.20;;;;;;;2.05;80.31;99859.94;87226;1288;286505;-60
2021/12/20 00:03:35;;;;;;;3.90;1.40;;;;;;;2.04;80.47;99858.42;87248;1290;81230;-59
2021/12/20 00:05:48;;;;;;;5.00;1.40;;;;;;;2.09;80.33;99854.75;87419;1288;99805;-60
2021/12/20 00:08:00;;;;;;;3.90;1.90;;;;;;;2.11;80.32;99852.79;87419;1289;89148;-63
2021/12/20 00:10:11;;;;;;;5.30;1.60;;;;;;;2.13;80.35;99858.05;87206;1288;97008;-63
2021/12/20 00:12:34;;;;;;;3.90;1.70;;;;;;;2.18;80.22;99858.59;87385;1288;80722;-63
2021/12/20 00:14:43;;;;;;;4.20;1.40;;;;;;;2.20;80.19;99860.20;87401;1287;84115;-62
2021/12/20 00:16:55;;;;;;;5.50;1.50;;;;;;;2.18;80.23;99859.48;87502;1288;99234;-63
2021/12/20 00:19:09;;;;;;;4.70;1.70;;;;;;;2.15;79.77;99855.35;87408;1288;87722;-62
2021/12/20 00:21:18;;;;;;;3.90;1.70;;;;;;;2.11;79.97;99857.39;87427;1288;94033;-61
2021/12/20 00:23:28;;;;;;;4.20;1.70;;;;;;;2.09;79.83;99852.77;87408;1289;79034;-64
2021/12/20 00:25:39;;;;;;;4.30;2.00;;;;;;;2.04;79.76;99852.92;87382;1284;80002;-63
2021/12/20 00:27:51;;;;;;;6.00;2.20;;;;;;;1.99;79.93;99859.29;87441;1291;98975;-60
2021/12/20 00:30:04;;;;;;;4.70;1.60;;;;;;;1.93;79.94;99852.00;87438;1288;87673;-61
2021/12/20 00:32:13;;;;;;;3.00;1.50;;;;;;;1.90;79.83;99861.39;87395;1291;92886;-63
2021/12/20 00:34:25;;;;;;;5.10;1.60;;;;;;;1.86;80.02;99865.12;87394;1292;80117;-63
2021/12/20 00:36:36;;;;;;;5.30;2.00;;;;;;;1.85;79.98;99864.94;87389;1292;81733;-63
2021/12/20 00:41:16;;;;;;;4.90;1.90;;;;;;;1.83;79.91;99861.21;87355;1292;88428;-63
2021/12/20 00:43:25;;;;;;;7.00;2.40;;;;;;;1.74;79.99;99862.50;87414;1292;95642;-63
2021/12/20 00:45:38;;;;;;;3.60;1.90;;;;;;;1.70;79.96;99864.65;87417;1286;78550;-65
2021/12/20 00:47:47;;;;;;;6.10;1.60;;;;;;;1.67;79.99;99864.70;87427;1287;83661;-60
2021/12/20 00:50:00;;;;;;;5.40;2.00;;;;;;;1.63;79.85;99868.77;87250;1290;100711;-60
2021/12/20 00:52:10;;;;;;;4.60;1.80;;;;;;;1.60;79.80;99865.84;87487;1287;87929;-60
2021/12/20 00:54:22;;;;;;;5.00;1.70;;;;;;;1.56;79.86;99865.55;87410;1289;94214;-60
2021/12/20 00:56:32;;;;;;;5.00;1.80;;;;;;;1.50;79.82;99865.80;87429;1288;79360;-60
2021/12/20 00:58:42;;;;;;;7.80;1.90;;;;;;;1.41;79.87;99864.27;87419;1289;81810;-60
2021/12/20 01:00:58;;;;;;;5.00;1.70;;;;;;;1.36;79.94;99865.65;87413;1288;98476;-60
2021/12/20 01:03:13;;;;;;;4.60;1.60;;;;;;;1.31;80.00;99866.14;87393;1287;88551;-60
2021/12/20 01:05:23;;;;;;;5.40;2.20;;;;;;;1.34;80.14;99870.98;87429;1291;94383;-60
2021/12/20 01:07:33;;;;;;;4.80;1.60;;;;;;;1.37;80.19;99872.64;87431;1292;79640;-60
2021/12/20 01:09:43;;;;;;;4.40;1.70;;;;;;;1.40;80.31;99867.07;87379;1291;80311;-61
2021/12/20 01:11:54;;;;;;;4.40;1.50;;;;;;;1.44;80.38;99865.95;87425;1288;100182;-59
2021/12/20 01:14:03;;;;;;;5.20;1.60;;;;;;;1.53;80.37;99873.29;87423;1287;89270;-59
2021/12/20 01:16:13;;;;;;;7.20;1.90;;;;;;;1.58;80.32;99869.89;87234;1289;93984;-59
2021/12/20 01:18:23;;;;;;;5.80;1.70;;;;;;;1.66;80.34;99871.30;87424;1287;77399;-60
2021/12/20 01:20:34;;;;;;;4.50;2.00;;;;;;;1.70;80.31;99870.55;87427;1288;79657;-60
2021/12/20 01:22:46;;;;;;;4.70;1.70;;;;;;;1.69;80.10;99869.27;87424;1288;99775;-61
2021/12/20 01:24:55;;;;;;;6.20;2.00;;;;;;;1.65;80.16;99865.41;87411;1289;88003;-60
2021/12/20 01:27:04;;;;;;;5.00;1.80;;;;;;;1.65;80.17;99867.33;87463;1281;93415;-61
2021/12/20 01:29:16;;;;;;;4.20;1.80;;;;;;;1.62;80.04;99864.80;87417;1288;80615;-60
2021/12/20 01:31:25;;;;;;;2.90;1.40;;;;;;;1.60;80.00;99864.98;87437;1288;83712;-63
2021/12/20 01:33:34;;;;;;;4.60;1.40;;;;;;;1.56;79.94;99865.54;87405;1291;99122;-67
2021/12/20 01:35:44;;;;;;;4.30;1.80;;;;;;;1.57;79.99;99866.45;87210;1285;87849;-63
2021/12/20 01:37:54;;;;;;;3.00;1.40;;;;;;;1.60;79.90;99865.66;87396;1288;93910;-64
2021/12/20 01:40:05;;;;;;;5.20;1.60;;;;;;;1.63;79.98;99866.98;87414;1287;78333;-63
2021/12/20 01:42:22;;;;;;;3.80;1.60;;;;;;;1.68;79.98;99862.27;87443;1287;80173;-63
2021/12/20 01:44:31;;;;;;;3.80;1.70;;;;;;;1.70;80.16;99862.21;87424;1291;99476;-63
2021/12/20 01:46:43;;;;;;;6.70;2.00;;;;;;;1.72;79.96;99864.47;87433;1288;87527;-60
2021/12/20 01:48:53;;;;;;;3.60;1.40;;;;;;;1.74;80.05;99866.83;87432;1287;94544;-60
2021/12/20 01:51:30;;;;;;;3.90;1.70;;;;;;;1.77;80.09;99866.70;87409;1288;79596;-60
2021/12/20 01:53:41;;;;;;;3.80;1.50;;;;;;;1.76;79.97;99869.11;87424;1288;79889;-61
2021/12/20 01:55:52;;;;;;;3.40;2.00;;;;;;;1.76;79.86;99861.63;87417;1287;99470;-60
2021/12/20 01:58:01;;;;;;;3.70;1.50;;;;;;;1.71;79.85;99863.56;87442;1282;86171;-62
2021/12/20 02:00:14;;;;;;;4.30;1.60;;;;;;;1.68;79.81;99860.63;87416;1292;95643;-60
2021/12/20 02:02:23;;;;;;;3.50;1.30;;;;;;;1.67;79.85;99865.04;87435;1284;80137;-61
2021/12/20 02:04:44;;;;;;;3.50;1.30;;;;;;;1.67;80.03;99868.55;87317;1295;81459;-61
2021/12/20 02:06:58;;;;;;;3.90;1.60;;;;;;;1.68;79.91;99875.05;87450;1290;98905;-60
2021/12/20 02:09:11;;;;;;;4.70;1.40;;;;;;;1.72;80.01;99874.13;87417;1288;87985;-60
2021/12/20 02:11:25;;;;;;;6.00;1.70;;;;;;;1.73;79.90;99870.27;87416;1288;94943;-64
2021/12/20 02:13:38;;;;;;;3.30;1.60;;;;;;;1.75;79.98;99867.81;87209;1290;77142;-62
2021/12/20 02:15:50;;;;;;;5.60;1.70;;;;;;;1.82;80.05;99869.46;87408;1288;83032;-62
2021/12/20 02:17:59;;;;;;;4.80;1.50;;;;;;;1.86;79.97;99864.73;87471;1274;97999;-59
2021/12/20 02:20:26;;;;;;;5.80;1.80;;;;;;;1.83;80.02;99862.77;87417;1291;89669;-60
2021/12/20 02:22:38;;;;;;;4.00;1.60;;;;;;;1.83;79.95;99865.11;87433;1286;94053;-62
2021/12/20 02:24:51;;;;;;;3.70;1.70;;;;;;;1.84;79.89;99862.36;87396;1284;78741;-59
2021/12/20 02:27:00;;;;;;;5.10;1.70;;;;;;;1.77;79.78;99860.11;87262;1289;82941;-60
2021/12/20 02:29:10;;;;;;;4.20;1.60;;;;;;;1.72;79.90;99855.09;87372;1285;97896;-60
2021/12/20 02:38:47;;;;;;;3.20;1.60;;;;;;;1.75;79.87;99864.05;87413;1286;81176;-64
2021/12/20 02:41:06;;;;;;;3.20;1.20;;;;;;;1.77;79.98;99864.52;87409;1288;98832;-64
2021/12/20 02:43:18;;;;;;;3.00;1.40;;;;;;;1.83;80.07;99867.60;87454;1292;89265;-60
2021/12/20 02:45:31;;;;;;;3.20;1.30;;;;;;;1.91;80.02;99864.70;87441;1289;95872;-60
2021/12/20 02:47:47;;;;;;;4.40;1.80;;;;;;;1.92;79.85;99860.52;87407;1292;77712;-60
2021/12/20 02:49:56;;;;;;;3.20;1.50;;;;;;;1.89;79.94;99856.52;87469;1291;80935;-61
2021/12/20 02:52:09;;;;;;;2.90;1.40;;;;;;;1.87;80.09;99862.20;87438;1287;100137;-63
2021/12/20 02:54:21;;;;;;;4.40;1.70;;;;;;;1.87;79.96;99863.23;87428;1288;88855;-62
2021/12/20 02:56:30;;;;;;;4.00;1.40;;;;;;;1.80;80.16;99860.61;87424;1288;93785;-62
2021/12/20 02:58:41;;;;;;;4.90;1.60;;;;;;;1.76;80.34;99860.36;87436;1288;81488;-64
2021/12/20 03:00:50;;;;;;;3.90;1.50;;;;;;;1.73;80.27;99852.90;87421;1287;82685;-63
2021/12/20 03:02:59;;;;;;;3.00;1.20;;;;;;;1.67;80.50;99843.90;87212;1289;97479;-61
2021/12/20 03:05:10;;;;;;;4.20;1.40;;;;;;;1.60;80.43;99840.63;87442;1288;89005;-60
2021/12/20 03:07:25;;;;;;;4.30;1.50;;;;;;;1.62;80.53;99841.31;87422;1287;95178;-63
2021/12/20 03:09:41;;;;;;;3.80;1.40;;;;;;;1.67;80.57;99840.29;87402;1288;78304;-62
2021/12/20 03:11:55;;;;;;;4.70;1.20;;;;;;;1.72;80.58;99838.28;87358;1288;81893;-59
2021/12/20 03:14:14;;;;;;;3.50;1.40;;;;;;;1.71;80.55;99839.59;87454;1289;98840;-59
2021/12/20 03:16:23;;;;;;;5.10;1.60;;;;;;;1.66;80.52;99837.77;87478;1291;89075;-62
2021/12/20 03:18:35;;;;;;;3.30;1.40;;;;;;;1.64;80.68;99834.77;87245;1289;94007;-64
2021/12/20 03:20:44;;;;;;;3.90;1.50;;;;;;;1.61;80.63;99832.15;87244;1289;77300;-63
2021/12/20 03:22:54;;;;;;;3.90;1.70;;;;;;;1.63;80.72;99834.53;87424;1288;83231;-63
2021/12/20 03:25:06;;;;;;;5.70;1.80;;;;;;;1.63;80.63;99833.58;87454;1288;100276;-62
2021/12/20 03:27:19;;;;;;;3.40;1.50;;;;;;;1.62;80.75;99829.23;87494;1288;89370;-60
2021/12/20 03:29:31;;;;;;;4.40;1.40;;;;;;;1.60;80.64;99828.60;87417;1288;94486;-60
2021/12/20 03:31:40;;;;;;;4.00;1.70;;;;;;;1.58;80.61;99829.80;87274;1288;79036;-60
2021/12/20 03:33:49;;;;;;;2.90;1.50;;;;;;;1.54;80.73;99831.52;87419;1284;79596;-60
2021/12/20 03:35:58;;;;;;;3.90;1.60;;;;;;;1.58;80.78;99830.17;87409;1288;97902;-60
2021/12/20 03:38:11;;;;;;;3.90;1.50;;;;;;;1.58;80.83;99829.45;87475;1291;86657;-60
2021/12/20 03:40:20;;;;;;;2.50;1.20;;;;;;;1.63;80.95;99833.30;87386;1282;95121;-60
2021/12/20 03:42:29;;;;;;;3.80;1.40;;;;;;;1.64;80.97;99831.55;87417;1288;81495;-60
2021/12/20 03:44:45;;;;;;;3.00;1.30;;;;;;;1.67;81.01;99833.42;87242;1292;82294;-59
2021/12/20 03:46:57;;;;;;;4.20;1.40;;;;;;;1.71;81.09;99825.70;87420;1287;100067;-62
2021/12/20 03:49:08;;;;;;;3.30;1.40;;;;;;;1.75;81.12;99824.11;87441;1288;89884;-62
2021/12/20 03:51:20;;;;;;;2.80;1.40;;;;;;;1.78;81.11;99819.58;87427;1291;93617;-62
2021/12/20 03:53:34;;;;;;;5.30;1.50;;;;;;;1.74;81.12;99819.58;87325;1292;77615;-64
2021/12/20 03:55:43;;;;;;;3.80;1.40;;;;;;;1.71;81.11;99819.88;87452;1285;81283;-63
2021/12/20 03:57:56;;;;;;;2.80;1.20;;;;;;;1.64;81.09;99819.12;87432;1288;100155;-62
2021/12/20 04:00:15;;;;;;;4.20;2.00;;;;;;;1.60;81.21;99823.48;87400;1288;89163;-62
2021/12/20 04:02:25;;;;;;;4.20;1.20;;;;;;;1.58;81.14;99826.67;87227;1289;95588;-62
2021/12/20 04:04:35;;;;;;;4.00;1.20;;;;;;;1.57;81.33;99822.70;87417;1288;78516;-63
2021/12/20 04:06:48;;;;;;;4.60;1.30;;;;;;;1.54;81.62;99830.75;87218;1289;82517;-60
2021/12/20 04:08:58;;;;;;;3.90;1.10;;;;;;;1.55;81.70;99829.80;87414;1288;99114;-60
2021/12/20 04:11:08;;;;;;;2.60;0.90;;;;;;;1.57;81.84;99830.63;87455;1284;88509;-59
2021/12/20 04:13:18;;;;;;;3.20;1.10;;;;;;;1.61;81.92;99824.56;87419;1286;95351;-59
2021/12/20 04:15:27;;;;;;;4.20;1.10;;;;;;;1.66;82.07;99820.67;87378;1285;80365;-60
2021/12/20 04:17:39;;;;;;;5.00;1.50;;;;;;;1.73;82.17;99823.75;87419;1288;82799;-60
2021/12/20 04:19:49;;;;;;;3.50;1.20;;;;;;;1.70;82.13;99831.37;87233;1292;100406;-61
2021/12/20 04:21:59;;;;;;;3.50;1.30;;;;;;;1.68;82.01;99832.38;87419;1291;87226;-64
2021/12/20 04:24:08;;;;;;;3.80;1.60;;;;;;;1.70;82.12;99830.98;87437;1288;94589;-63
2021/12/20 04:26:17;;;;;;;2.90;1.20;;;;;;;1.66;82.16;99840.94;87461;1288;79280;-61
2021/12/20 04:28:26;;;;;;;3.90;1.30;;;;;;;1.60;82.14;99840.42;87226;1290;83979;-60
2021/12/20 04:30:36;;;;;;;2.60;1.00;;;;;;;1.61;82.20;99838.57;87401;1284;97487;-59
2021/12/20 04:32:47;;;;;;;7.00;1.40;;;;;;;1.57;82.31;99834.91;87394;1288;88106;-60
2021/12/20 04:34:56;;;;;;;4.00;1.00;;;;;;;1.60;82.42;99833.89;87365;1291;94082;-60
2021/12/20 04:37:07;;;;;;;3.30;1.20;;;;;;;1.63;82.56;99830.77;87423;1285;78015;-60
2021/12/20 04:39:17;;;;;;;2.90;1.00;;;;;;;1.67;82.60;99829.81;87457;1288;82791;-60
2021/12/20 04:41:26;;;;;;;4.40;1.30;;;;;;;1.71;82.61;99833.94;87221;1291;98268;-63
2021/12/20 04:43:35;;;;;;;4.00;1.00;;;;;;;1.79;82.70;99836.30;87395;1288;88465;-62
2021/12/20 04:45:45;;;;;;;3.70;1.00;;;;;;;1.87;82.71;99839.66;87418;1283;92953;-62
2021/12/20 04:47:55;;;;;;;3.80;1.20;;;;;;;1.94;82.72;99836.98;87448;1283;79706;-59
2021/12/20 04:50:05;;;;;;;2.40;1.10;;;;;;;1.99;82.66;99837.09;87431;1279;82599;-60
2021/12/20 04:52:17;;;;;;;4.40;1.20;;;;;;;2.00;82.73;99835.14;87421;1288;99769;-60
2021/12/20 04:54:27;;;;;;;4.30;2.00;;;;;;;2.00;82.71;99842.31;87419;1285;88068;-60
2021/12/20 04:56:36;;;;;;;3.70;1.30;;;;;;;1.95;82.78;99841.36;87439;1289;93419;-60
2021/12/20 04:58:48;;;;;;;3.30;1.40;;;;;;;1.89;82.80;99842.48;87412;1288;80939;-60
2021/12/20 05:00:57;;;;;;;2.20;1.00;;;;;;;1.79;82.91;99854.62;87047;1290;84930;-59
2021/12/20 05:03:11;;;;;;;4.20;1.40;;;;;;;1.79;83.01;99854.38;87419;1288;100246;-59
2021/12/20 05:05:23;;;;;;;2.40;1.30;;;;;;;1.85;83.17;99858.50;87437;1289;88692;-59
2021/12/20 05:07:32;;;;;;;2.90;1.10;;;;;;;1.83;83.25;99861.38;87398;1290;92887;-59
2021/12/20 05:09:42;;;;;;;2.20;1.00;;;;;;;1.87;83.26;99855.98;87412;1290;78731;-59
2021/12/20 05:11:58;;;;;;;2.40;0.90;;;;;;;1.90;83.40;99855.67;87470;1288;81465;-60
2021/12/20 05:14:07;;;;;;;2.30;1.10;;;;;;;1.92;83.41;99861.31;87236;1289;98037;-59
2021/12/20 05:16:20;;;;;;;2.00;1.10;;;;;;;1.96;83.48;99869.01;87370;1288;89102;-62
2021/12/20 05:18:29;;;;;;;2.30;1.10;;;;;;;1.95;83.50;99871.95;87406;1288;94850;-63
2021/12/20 05:20:38;;;;;;;3.10;1.20;;;;;;;1.97;83.66;99872.39;87410;1288;77176;-63
2021/12/20 05:22:48;;;;;;;2.00;1.20;;;;;;;2.01;83.56;99879.33;87447;1286;81607;-60
2021/12/20 05:25:00;;;;;;;3.10;1.30;;;;;;;2.03;83.40;99882.67;87442;1285;97811;-60
2021/12/20 05:27:09;;;;;;;2.20;1.40;;;;;;;2.02;83.36;99884.90;87235;1289;88765;-62
2021/12/20 05:29:19;;;;;;;4.10;1.40;;;;;;;1.94;83.53;99877.91;87425;1286;93385;-62
2021/12/20 05:31:33;;;;;;;3.00;1.00;;;;;;;1.95;83.48;99882.94;87405;1287;78933;-60
2021/12/20 05:33:40;;;;;;;;;;;;;;;1.92;83.66;99891.36;87399;1295;82395;-60
2021/12/20 05:35:50;;;;;;;3.30;1.30;;;;;;;1.92;83.77;99896.38;87440;1288;98894;-60
2021/12/20 05:37:59;;;;;;;1.40;1.00;;;;;;;1.97;83.67;99901.58;87431;1285;88522;-63
2021/12/20 05:40:14;;;;;;;2.30;1.20;;;;;;;1.96;84.02;99898.77;87241;1290;95567;-64
2021/12/20 05:42:26;;;;;;;1.90;1.20;;;;;;;1.99;83.89;99904.00;87458;1288;78521;-62
2021/12/20 05:44:36;;;;;;;2.10;1.20;;;;;;;2.01;84.10;99902.90;87248;1285;80896;-62
2021/12/20 05:46:45;;;;;;;2.30;1.40;;;;;;;2.07;84.03;99904.08;87441;1285;99213;-63
2021/12/20 05:48:54;;;;;;;1.70;1.40;;;;;;;2.14;84.05;99907.19;87444;1288;87329;-63
2021/12/20 05:51:04;;;;;;;2.80;1.20;;;;;;;2.13;84.00;99908.54;87406;1284;95654;-63
2021/12/20 05:53:13;;;;;;;3.70;1.70;;;;;;;2.13;83.89;99907.80;87223;1285;77932;-60
2021/12/20 05:55:22;;;;;;;2.00;1.50;;;;;;;2.13;83.98;99913.70;87415;1287;82441;-60
2021/12/20 05:57:32;;;;;;;2.40;1.50;;;;;;;2.09;84.03;99911.89;87423;1288;99848;-66
2021/12/20 05:59:44;;;;;;;2.10;1.40;;;;;;;2.06;84.00;99913.48;87456;1288;88852;-64
2021/12/20 06:01:53;;;;;;;2.10;1.30;;;;;;;2.01;83.97;99921.18;87353;1286;92775;-59
2021/12/20 06:04:02;;;;;;;2.80;1.10;;;;;;;1.97;84.13;99928.52;87412;1286;78667;-60
2021/12/20 06:06:21;;;;;;;1.90;1.40;;;;;;;1.96;84.32;99934.10;87256;1291;82302;-61
2021/12/20 06:08:31;;;;;;;2.20;1.30;;;;;;;2.00;84.30;99937.98;87348;1288;98860;-61
2021/12/20 06:10:43;;;;;;;1.90;1.40;;;;;;;2.00;84.44;99946.90;87403;1288;88551;-60
2021/12/20 06:12:55;;;;;;;2.10;1.30;;;;;;;2.02;84.49;99954.91;87233;1291;95265;-61
2021/12/20 06:15:04;;;;;;;2.10;1.60;;;;;;;2.05;84.54;99954.77;87246;1291;83520;-60
2021/12/20 06:17:16;;;;;;;1.70;1.50;;;;;;;1.98;84.50;99954.73;87454;1288;82827;-60
2021/12/20 06:19:27;;;;;;;3.30;1.60;;;;;;;1.96;84.68;99956.54;87254;1291;98112;-60
2021/12/20 06:21:38;;;;;;;1.80;1.40;;;;;;;2.05;84.59;99955.80;87403;1288;89057;-63
2021/12/20 06:23:48;;;;;;;3.10;1.80;;;;;;;2.08;84.65;99959.63;87419;1290;95063;-63
2021/12/20 06:25:57;;;;;;;3.90;1.80;;;;;;;2.04;84.56;99966.44;87434;1288;78576;-63
2021/12/20 06:28:07;;;;;;;2.90;1.60;;;;;;;1.97;84.50;99968.27;87484;1288;81802;-62
2021/12/20 06:30:20;;;;;;;2.10;1.40;;;;;;;1.95;84.44;99972.20;87432;1288;99911;-61
2021/12/20 06:32:29;;;;;;;2.30;1.70;;;;;;;1.88;84.39;99974.98;87069;1282;87159;-67
2021/12/20 06:34:40;;;;;;;4.00;1.80;;;;;;;1.88;84.51;99977.46;87237;1289;94527;-63
2021/12/20 06:36:49;;;;;;;2.90;1.60;;;;;;;1.93;84.38;99981.86;87460;1291;80879;-64
2021/12/20 06:38:58;;;;;;;2.40;1.60;;;;;;;1.96;84.40;99982.63;87461;1288;81876;-64
2021/12/20 06:41:09;;;;;;;2.50;1.60;;;;;;;1.95;84.59;99986.39;87431;1291;99705;-64
2021/12/20 06:43:18;;;;;;;2.90;1.60;;;;;;;1.98;84.65;99992.05;87420;1288;87562;-61
2021/12/20 06:45:29;;;;;;;1.90;1.40;;;;;;;2.00;84.72;99993.39;87408;1287;93628;-61
2021/12/20 06:47:39;;;;;;;3.90;1.70;;;;;;;2.05;84.67;99993.63;87459;1287;80343;-63
2021/12/20 06:49:48;;;;;;;2.80;1.60;;;;;;;2.05;84.69;99991.71;87398;1289;82335;-63
2021/12/20 06:51:59;;;;;;;4.30;3.10;;;;;;;2.11;84.76;99991.10;87452;1288;99384;-60
2021/12/20 06:54:13;;;;;;;2.50;2.00;;;;;;;2.13;84.54;99993.38;87439;1288;89355;-60
2021/12/20 06:56:23;;;;;;;2.40;2.10;;;;;;;2.12;84.51;99995.66;87408;1288;93923;-63
2021/12/20 06:58:36;;;;;;;3.00;2.00;;;;;;;2.14;84.70;99996.28;87262;1291;78046;-61
2021/12/20 07:00:49;;;;;;;2.50;2.00;;;;;;;2.12;84.61;99999.52;87399;1284;82626;-59
2021/12/20 07:03:01;;;;;;;2.70;1.90;;;;;;;2.11;84.64;100003.92;87262;1294;99945;-61
2021/12/20 07:05:14;;;;;;;2.60;1.80;;;;;;;2.06;84.58;100007.24;87435;1288;89493;-60
2021/12/20 07:07:23;;;;;;;2.60;1.80;;;;;;;2.07;84.64;100010.00;87230;1285;95184;-63
2021/12/20 07:09:36;;;;;;;3.30;1.90;;;;;;;2.07;84.56;100009.73;87435;1287;78876;-63
2021/12/20 07:11:45;;;;;;;4.80;1.90;;;;;;;2.12;84.61;100013.96;87466;1289;80722;-62
2021/12/20 07:13:54;;;;;;;2.90;1.80;;;;;;;2.16;84.61;100013.55;87474;1284;98776;-60
2021/12/20 07:16:08;;;;;;;2.80;1.50;;;;;;;2.17;84.56;100016.67;87371;1291;88074;-60
2021/12/20 07:18:21;;;;;;;2.10;1.50;;;;;;;2.19;84.56;100015.59;87433;1288;95097;-63
2021/12/20 07:20:30;;;;;;;368.00;224.50;;;;;;;2.22;84.47;100017.89;87407;1284;80047;-62
2021/12/20 07:22:42;;;;;;;23.90;14.40;;;;;;;2.26;84.58;100019.80;87456;1288;81092;-64
2021/12/20 07:24:51;;;;;;;6.50;3.30;;;;;;;2.29;84.44;100027.77;87416;1288;99610;-63
2021/12/20 07:27:04;;;;;;;4.50;2.70;;;;;;;2.27;84.37;100031.86;87464;1287;89785;-59
2021/12/20 07:29:23;;;;;;;3.50;1.90;;;;;;;2.18;84.34;100031.58;87337;1292;96847;-59
2021/12/20 07:31:35;;;;;;;3.10;2.20;;;;;;;2.18;84.33;100037.36;87426;1292;81337;-62
2021/12/20 07:33:48;;;;;;;4.60;2.70;;;;;;;2.17;84.40;100040.73;87449;1286;82841;-63
2021/12/20 07:36:00;;;;;;;2.80;2.00;;;;;;;2.15;84.58;100039.86;87232;1291;97490;-62
2021/12/20 07:38:14;;;;;;;2.70;2.10;;;;;;;2.16;84.49;100033.94;87493;1284;86681;-62
2021/12/20 07:40:24;;;;;;;2.10;1.60;;;;;;;2.20;84.46;100031.58;87270;1290;94118;-63
2021/12/20 07:42:36;;;;;;;3.00;2.20;;;;;;;2.16;84.57;100033.19;87461;1291;79202;-60
2021/12/20 07:44:49;;;;;;;3.60;2.30;;;;;;;2.20;84.54;100035.66;87458;1287;81298;-60
2021/12/20 07:46:58;;;;;;;2.60;1.90;;;;;;;2.31;84.53;100036.81;87309;1288;99221;-59
2021/12/20 07:49:11;;;;;;;3.30;2.70;;;;;;;2.35;84.44;100034.45;87458;1288;88564;-58
2021/12/20 07:51:23;;;;;;;2.40;2.10;;;;;;;2.43;84.45;100037.35;87416;1288;95414;-61
2021/12/20 07:53:32;;;;;;;3.00;2.20;;;;;;;2.47;84.40;100039.67;87345;1288;79558;-62
2021/12/20 07:55:45;;;;;;;4.00;2.40;;;;;;;2.46;84.37;100040.80;87340;1292;81392;-62
2021/12/20 07:57:57;;;;;;;3.90;3.00;;;;;;;2.49;84.34;100043.59;87453;1288;99978;-59
2021/12/20 08:00:09;;;;;;;4.00;2.50;;;;;;;2.51;84.30;100042.89;87444;1285;88497;-59
2021/12/20 08:02:22;;;;;;;3.20;2.20;;;;;;;2.55;84.19;100049.52;86777;1290;623747;-62
2021/12/20 08:04:32;;;;;;;3.30;2.80;;;;;;;2.56;84.15;100050.86;87227;1292;80311;-62
2021/12/20 08:06:42;;;;;;;3.00;2.30;;;;;;;2.58;84.15;100055.88;87486;1287;82739;-59
2021/12/20 08:08:52;;;;;;;3.90;2.70;;;;;;;2.65;84.11;100061.92;87357;1287;97413;-60
2021/12/20 08:11:02;;;;;;;3.20;2.30;;;;;;;2.65;84.16;100062.08;87274;1291;86943;-59
2021/12/20 08:13:16;;;;;;;4.60;2.50;;;;;;;2.64;84.04;100067.92;87210;1289;94881;-62
2021/12/20 08:15:29;;;;;;;3.50;2.30;;;;;;;2.62;84.09;100066.13;87415;1287;79179;-63
2021/12/20 08:17:41;;;;;;;3.50;2.30;;;;;;;2.66;84.10;100071.80;87493;1288;80174;-60
2021/12/20 08:19:53;;;;;;;3.80;2.70;;;;;;;2.74;84.01;100074.20;87436;1284;98229;-60
2021/12/20 08:22:02;;;;;;;3.70;2.90;;;;;;;2.74;84.02;100074.95;87430;1288;89242;-60
2021/12/20 08:24:12;;;;;;;4.50;3.10;;;;;;;2.71;84.01;100077.52;87441;1288;93978;-61
2021/12/20 08:26:26;;;;;;;5.10;3.00;;;;;;;2.73;83.95;100076.74;87429;1288;78497;-61
2021/12/20 08:28:36;;;;;;;3.90;2.70;;;;;;;2.65;84.00;100080.06;87453;1288;82708;-61
2021/12/20 08:30:48;;;;;;;3.50;2.80;;;;;;;2.57;84.00;100080.13;87434;1286;100146;-60
2021/12/20 08:33:01;;;;;;;4.60;2.80;;;;;;;2.56;83.94;100080.75;87434;1284;89072;-60
2021/12/20 08:35:15;;;;;;;4.20;3.20;;;;;;;2.57;84.02;100079.45;87419;1288;95291;-59
2021/12/20 08:37:27;;;;;;;3.20;2.50;;;;;;;2.57;83.97;100080.88;87428;1285;79614;-70
2021/12/20 08:39:39;;;;;;;4.30;2.40;;;;;;;2.52;84.04;100081.15;87460;1288;83288;-61
2021/12/20 08:41:52;;;;;;;4.50;3.10;;;;;;;2.46;84.03;100081.70;87502;1287;100671;-61
2021/12/20 08:44:01;;;;;;;3.60;2.30;;;;;;;2.40;84.16;100088.35;87429;1291;87840;-63
2021/12/20 08:46:15;;;;;;;3.60;2.20;;;;;;;2.30;84.24;100088.92;87438;1287;95938;-60
2021/12/20 08:48:27;;;;;;;2.30;1.90;;;;;;;2.28;84.22;100090.71;87036;1294;78779;-60
2021/12/20 08:50:37;;;;;;;4.00;2.30;;;;;;;2.22;84.30;100092.18;87242;1294;80959;-60
2021/12/20 08:52:46;;;;;;;2.70;2.10;;;;;;;2.21;84.29;100091.17;87424;1287;97613;-60
2021/12/20 08:54:55;;;;;;;2.80;1.80;;;;;;;2.19;84.32;100090.80;87414;1288;87789;-59
2021/12/20 08:57:07;;;;;;;4.80;2.10;;;;;;;2.16;84.33;100092.62;87426;1287;93468;-63
2021/12/20 08:59:18;;;;;;;2.60;2.00;;;;;;;2.16;84.47;100099.09;87220;1286;78650;-63
2021/12/20 09:01:31;;;;;;;3.40;2.40;;;;;;;2.17;84.43;100107.71;87471;1288;82943;-60
2021/12/20 09:03:44;;;;;;;4.20;2.20;;;;;;;2.13;84.49;100109.34;87332;1288;97868;-61
2021/12/20 09:05:54;;;;;;;3.70;2.30;;;;;;;2.08;84.39;100111.98;87418;1288;88292;-61
2021/12/20 09:08:09;;;;;;;3.20;2.10;;;;;;;1.99;84.43;100124.05;87443;1291;93607;-59
2021/12/20 09:10:22;;;;;;;2.30;1.80;;;;;;;1.93;84.48;100130.08;87417;1292;78402;-62
2021/12/20 09:12:35;;;;;;;2.10;1.50;;;;;;;1.86;84.44;100142.09;87449;1288;82323;-67
2021/12/20 09:14:45;;;;;;;2.50;1.60;;;;;;;1.76;84.38;100140.27;87491;1288;99911;-67
2021/12/20 09:16:55;;;;;;;2.90;1.10;;;;;;;1.65;84.18;100136.58;87217;1286;87964;-60
2021/12/20 09:19:07;;;;;;;2.70;1.40;;;;;;;1.55;84.22;100135.20;87413;1291;95157;-60
2021/12/20 09:21:19;;;;;;;2.00;1.00;;;;;;;1.52;84.28;100144.83;87467;1288;79140;-63
2021/12/20 09:23:32;;;;;;;2.10;1.10;;;;;;;1.48;84.14;100145.73;87238;1292;83179;-66
2021/12/20 09:25:46;;;;;;;2.10;1.70;;;;;;;1.44;84.12;100150.73;87433;1288;98363;-66
2021/12/20 09:28:01;;;;;;;1.50;0.90;;;;;;;1.36;84.04;100151.85;87250;1292;89259;-66
2021/12/20 09:30:12;;;;;;;1.30;0.60;;;;;;;1.27;84.15;100155.15;87457;1290;95581;-67
2021/12/20 09:32:22;;;;;;;3.30;1.00;;;;;;;1.27;84.38;100157.95;87219;1291;83174;-67
2021/12/20 09:34:32;;;;;;;0.90;0.50;;;;;;;1.23;84.44;100158.86;87430;1292;83063;-67
2021/12/20 09:36:44;;;;;;;1.00;0.50;;;;;;;1.20;84.50;100163.23;87260;1291;97950;-67
2021/12/20 09:38:56;;;;;;;0.80;0.60;;;;;;;1.10;84.44;100163.05;87465;1288;87228;-69
2021/12/20 09:41:27;;;;;;;1.30;0.80;;;;;;;1.07;84.67;100164.33;87421;1288;92825;-68
2021/12/20 09:43:41;;;;;;;1.00;0.70;;;;;;;1.02;84.79;100161.45;87424;1286;79491;-60
2021/12/20 09:45:51;;;;;;;0.90;0.70;;;;;;;1.04;84.93;100166.95;87427;1292;82466;-60
2021/12/20 09:48:00;;;;;;;1.30;0.60;;;;;;;1.11;85.03;100171.23;87431;1289;99884;-64
2021/12/20 09:50:13;;;;;;;2.40;0.90;;;;;;;1.20;85.08;100169.06;87447;1288;87905;-62
2021/12/20 09:52:26;;;;;;;2.10;0.80;;;;;;;1.39;85.07;100180.98;87440;1289;94100;-64
2021/12/20 09:54:37;;;;;;;4.00;1.30;;;;;;;1.46;84.81;100181.80;87239;1292;79188;-63
2021/12/20 09:56:52;;;;;;;2.00;1.00;;;;;;;1.44;84.68;100190.48;87502;1281;82550;-63
2021/12/20 09:59:04;;;;;;;2.60;1.40;;;;;;;1.40;84.87;100189.63;87486;1287;98784;-63
2021/12/20 10:01:15;;;;;;;2.70;1.40;;;;;;;1.43;84.86;100185.79;87483;1286;86162;-61
2021/12/20 10:03:26;;;;;;;3.30;1.60;;;;;;;1.52;84.92;100181.40;87484;1288;95541;-64
2021/12/20 10:05:37;;;;;;;1.80;1.20;;;;;;;1.63;84.84;100182.89;87468;1286;78437;-64
2021/12/20 10:07:51;;;;;;;4.00;1.40;;;;;;;1.68;84.59;100187.52;87529;1291;82310;-60
2021/12/20 10:10:00;;;;;;;;;;;;;;;1.71;84.62;100185.34;87486;1291;98673;-60
2021/12/20 10:12:21;;;;;;;7.10;4.00;;;;;;;1.69;84.39;100191.89;87322;1291;86769;-64
2021/12/20 10:14:30;;;;;;;6.80;3.70;;;;;;;1.76;84.35;100189.48;87482;1288;93569;-62
2021/12/20 10:16:43;;;;;;;7.60;3.20;;;;;;;1.86;84.12;100189.38;87335;1285;76765;-61
2021/12/20 10:18:55;;;;;;;4.20;2.30;;;;;;;1.92;84.13;100184.14;87487;1289;82661;-60
2021/12/20 10:21:11;;;;;;;4.50;2.10;;;;;;;1.98;84.01;100181.25;87448;1289;100182;-61
2021/12/20 10:23:25;;;;;;;4.20;1.90;;;;;;;2.02;83.89;100186.41;87481;1290;88273;-61
2021/12/20 10:25:40;;;;;;;4.40;2.10;;;;;;;2.06;83.70;100187.64;87473;1280;93156;-60
2021/12/20 10:27:48;;;;;;;5.40;3.10;;;;;;;2.09;83.59;100182.76;87456;1290;79458;-63
2021/12/20 10:30:01;;;;;;;4.70;3.60;;;;;;;2.09;83.53;100179.40;87277;1287;83285;-63
2021/12/20 10:32:12;;;;;;;4.90;3.00;;;;;;;2.12;83.41;100183.69;87444;1291;99432;-61
2021/12/20 10:34:34;;;;;;;4.30;2.40;;;;;;;2.21;83.33;100183.73;87471;1283;86326;-64